sensor_id;sensor_type;location;lat;lon;timestamp;temperature;humidity
75088;HTU21D;63664;44.868;40.600;2022-10-16T00:01:15;12.63;81.59
75088;HTU21D;63664;44.868;40.600;2022-10-16T00:03:43;12.63;81.68
75088;HTU21D;63664;44.868;40.600;2022-10-16T00:06:10;12.61;81.74
75088;HTU21D;63664;44.868;40.600;2022-10-16T00:08:38;12.63;81.78
75088;HTU21D;63664;44.868;40.600;2022-10-16T00:11:10;12.62;81.81
75088;HTU21D;63664;44.868;40.600;2022-10-16T00:13:39;12.64;81.86
75088;HTU21D;63664;44.868;40.600;2022-10-16T00:16:06;12.63;81.89
75088;HTU21D;63664;44.868;40.600;2022-10-16T00:18:33;12.63;81.97
75088;HTU21D;63664;44.868;40.600;2022-10-16T00:21:06;12.65;82.02
75088;HTU21D;63664;44.868;40.600;2022-10-16T00:23:34;12.66;82.10
75088;HTU21D;63664;44.868;40.600;2022-10-16T00:26:03;12.70;82.23
75088;HTU21D;63664;44.868;40.600;2022-10-16T00:28:30;12.74;82.61
75088;HTU21D;63664;44.868;40.600;2022-10-16T00:30:57;12.78;83.13
75088;HTU21D;63664;44.868;40.600;2022-10-16T00:33:24;12.85;83.15
75088;HTU21D;63664;44.868;40.600;2022-10-16T00:35:51;12.91;83.60
75088;HTU21D;63664;44.868;40.600;2022-10-16T00:38:17;12.93;83.52
75088;HTU21D;63664;44.868;40.600;2022-10-16T00:40:43;12.96;83.65
75088;HTU21D;63664;44.868;40.600;2022-10-16T00:43:31;12.99;83.92
75088;HTU21D;63664;44.868;40.600;2022-10-16T00:46:01;13.00;84.16
75088;HTU21D;63664;44.868;40.600;2022-10-16T00:48:29;13.01;84.22
75088;HTU21D;63664;44.868;40.600;2022-10-16T00:50:56;13.01;84.58
75088;HTU21D;63664;44.868;40.600;2022-10-16T00:53:25;13.01;84.66
75088;HTU21D;63664;44.868;40.600;2022-10-16T00:55:52;13.01;84.82
75088;HTU21D;63664;44.868;40.600;2022-10-16T00:58:18;13.00;84.95
75088;HTU21D;63664;44.868;40.600;2022-10-16T01:00:45;13.01;85.19
75088;HTU21D;63664;44.868;40.600;2022-10-16T01:03:29;13.03;85.44
75088;HTU21D;63664;44.868;40.600;2022-10-16T01:20:21;13.08;85.94
75088;HTU21D;63664;44.868;40.600;2022-10-16T01:23:16;13.10;86.35
75088;HTU21D;63664;44.868;40.600;2022-10-16T01:28:54;13.09;86.36
75088;HTU21D;63664;44.868;40.600;2022-10-16T01:31:25;13.09;86.27
75088;HTU21D;63664;44.868;40.600;2022-10-16T01:36:41;13.10;86.53
75088;HTU21D;63664;44.868;40.600;2022-10-16T01:39:10;13.09;86.61
75088;HTU21D;63664;44.868;40.600;2022-10-16T01:41:49;13.09;86.60
75088;HTU21D;63664;44.868;40.600;2022-10-16T01:44:32;13.10;86.64
75088;HTU21D;63664;44.868;40.600;2022-10-16T01:47:00;13.10;86.80
75088;HTU21D;63664;44.868;40.600;2022-10-16T01:49:31;13.10;86.83
75088;HTU21D;63664;44.868;40.600;2022-10-16T01:52:00;13.09;86.99
75088;HTU21D;63664;44.868;40.600;2022-10-16T01:54:31;13.11;87.11
75088;HTU21D;63664;44.868;40.600;2022-10-16T01:56:59;13.11;87.03
75088;HTU21D;63664;44.868;40.600;2022-10-16T01:59:26;13.12;87.22
75088;HTU21D;63664;44.868;40.600;2022-10-16T02:02:00;13.14;87.19
75088;HTU21D;63664;44.868;40.600;2022-10-16T02:04:28;13.14;87.27
75088;HTU21D;63664;44.868;40.600;2022-10-16T02:06:55;13.11;86.95
75088;HTU21D;63664;44.868;40.600;2022-10-16T02:09:21;13.10;87.09
75088;HTU21D;63664;44.868;40.600;2022-10-16T02:11:51;13.11;87.31
75088;HTU21D;63664;44.868;40.600;2022-10-16T02:14:19;13.11;87.52
75088;HTU21D;63664;44.868;40.600;2022-10-16T02:16:46;13.15;87.42
75088;HTU21D;63664;44.868;40.600;2022-10-16T02:19:13;13.15;87.44
75088;HTU21D;63664;44.868;40.600;2022-10-16T02:22:00;13.17;87.80
75088;HTU21D;63664;44.868;40.600;2022-10-16T02:24:54;13.17;87.69
75088;HTU21D;63664;44.868;40.600;2022-10-16T02:30:19;13.18;87.67
75088;HTU21D;63664;44.868;40.600;2022-10-16T02:32:48;13.19;87.53
75088;HTU21D;63664;44.868;40.600;2022-10-16T02:35:20;13.19;87.58
75088;HTU21D;63664;44.868;40.600;2022-10-16T02:37:49;13.20;87.76
75088;HTU21D;63664;44.868;40.600;2022-10-16T02:40:17;13.20;87.74
75088;HTU21D;63664;44.868;40.600;2022-10-16T02:42:43;13.20;87.79
75088;HTU21D;63664;44.868;40.600;2022-10-16T02:45:11;13.21;87.75
75088;HTU21D;63664;44.868;40.600;2022-10-16T02:47:37;13.23;87.72
75088;HTU21D;63664;44.868;40.600;2022-10-16T02:50:04;13.24;87.83
75088;HTU21D;63664;44.868;40.600;2022-10-16T02:52:30;13.25;87.89
75088;HTU21D;63664;44.868;40.600;2022-10-16T02:54:57;13.24;87.90
75088;HTU21D;63664;44.868;40.600;2022-10-16T02:57:23;13.26;88.09
75088;HTU21D;63664;44.868;40.600;2022-10-16T02:59:49;13.27;88.03
75088;HTU21D;63664;44.868;40.600;2022-10-16T03:02:16;13.31;88.38
75088;HTU21D;63664;44.868;40.600;2022-10-16T03:04:42;13.31;88.18
75088;HTU21D;63664;44.868;40.600;2022-10-16T03:07:08;13.33;88.11
75088;HTU21D;63664;44.868;40.600;2022-10-16T03:09:35;13.35;88.28
75088;HTU21D;63664;44.868;40.600;2022-10-16T03:12:01;13.36;88.36
75088;HTU21D;63664;44.868;40.600;2022-10-16T03:14:27;13.37;88.45
75088;HTU21D;63664;44.868;40.600;2022-10-16T03:16:54;13.38;88.48
75088;HTU21D;63664;44.868;40.600;2022-10-16T03:19:20;13.39;88.44
75088;HTU21D;63664;44.868;40.600;2022-10-16T03:21:46;13.38;88.44
75088;HTU21D;63664;44.868;40.600;2022-10-16T03:24:13;13.38;88.52
75088;HTU21D;63664;44.868;40.600;2022-10-16T03:26:39;13.38;88.49
75088;HTU21D;63664;44.868;40.600;2022-10-16T03:29:05;13.37;88.53
75088;HTU21D;63664;44.868;40.600;2022-10-16T03:31:32;13.38;88.52
75088;HTU21D;63664;44.868;40.600;2022-10-16T03:33:59;13.36;88.49
75088;HTU21D;63664;44.868;40.600;2022-10-16T03:36:25;13.37;88.51
75088;HTU21D;63664;44.868;40.600;2022-10-16T03:38:51;13.36;88.47
75088;HTU21D;63664;44.868;40.600;2022-10-16T03:41:17;13.37;88.50
75088;HTU21D;63664;44.868;40.600;2022-10-16T03:43:44;13.37;88.66
75088;HTU21D;63664;44.868;40.600;2022-10-16T03:46:10;13.38;88.60
75088;HTU21D;63664;44.868;40.600;2022-10-16T03:48:36;13.38;88.64
75088;HTU21D;63664;44.868;40.600;2022-10-16T03:51:03;13.37;88.81
75088;HTU21D;63664;44.868;40.600;2022-10-16T03:53:29;13.39;88.70
75088;HTU21D;63664;44.868;40.600;2022-10-16T03:55:55;13.39;88.70
75088;HTU21D;63664;44.868;40.600;2022-10-16T03:58:22;13.39;88.65
75088;HTU21D;63664;44.868;40.600;2022-10-16T04:00:48;13.39;88.76
75088;HTU21D;63664;44.868;40.600;2022-10-16T04:03:15;13.38;88.75
75088;HTU21D;63664;44.868;40.600;2022-10-16T04:05:41;13.36;88.85
75088;HTU21D;63664;44.868;40.600;2022-10-16T04:08:08;13.36;88.91
75088;HTU21D;63664;44.868;40.600;2022-10-16T04:10:34;13.36;88.89
75088;HTU21D;63664;44.868;40.600;2022-10-16T04:13:01;13.35;88.86
75088;HTU21D;63664;44.868;40.600;2022-10-16T04:15:27;13.33;88.89
75088;HTU21D;63664;44.868;40.600;2022-10-16T04:17:53;13.32;88.89
75088;HTU21D;63664;44.868;40.600;2022-10-16T04:20:20;13.31;88.96
75088;HTU21D;63664;44.868;40.600;2022-10-16T04:22:46;13.29;89.10
75088;HTU21D;63664;44.868;40.600;2022-10-16T04:25:13;13.27;89.05
75088;HTU21D;63664;44.868;40.600;2022-10-16T04:27:39;13.31;88.99
75088;HTU21D;63664;44.868;40.600;2022-10-16T04:30:06;13.33;88.92
75088;HTU21D;63664;44.868;40.600;2022-10-16T04:32:32;13.34;88.87
75088;HTU21D;63664;44.868;40.600;2022-10-16T04:34:58;13.38;88.79
75088;HTU21D;63664;44.868;40.600;2022-10-16T04:37:25;13.41;88.82
75088;HTU21D;63664;44.868;40.600;2022-10-16T04:39:53;13.46;88.84
75088;HTU21D;63664;44.868;40.600;2022-10-16T04:42:20;13.50;88.75
75088;HTU21D;63664;44.868;40.600;2022-10-16T04:44:46;13.52;88.66
75088;HTU21D;63664;44.868;40.600;2022-10-16T04:47:13;13.56;88.53
75088;HTU21D;63664;44.868;40.600;2022-10-16T04:49:39;13.59;88.51
75088;HTU21D;63664;44.868;40.600;2022-10-16T04:52:06;13.61;88.49
75088;HTU21D;63664;44.868;40.600;2022-10-16T04:54:32;13.64;88.44
75088;HTU21D;63664;44.868;40.600;2022-10-16T04:56:58;13.67;88.46
75088;HTU21D;63664;44.868;40.600;2022-10-16T04:59:24;13.71;88.38
75088;HTU21D;63664;44.868;40.600;2022-10-16T05:01:50;13.75;88.32
75088;HTU21D;63664;44.868;40.600;2022-10-16T05:04:17;13.77;88.24
75088;HTU21D;63664;44.868;40.600;2022-10-16T05:06:43;13.81;88.20
75088;HTU21D;63664;44.868;40.600;2022-10-16T05:09:10;13.84;88.16
75088;HTU21D;63664;44.868;40.600;2022-10-16T05:11:36;13.85;88.13
75088;HTU21D;63664;44.868;40.600;2022-10-16T05:14:02;13.90;88.06
75088;HTU21D;63664;44.868;40.600;2022-10-16T05:16:29;13.91;88.09
75088;HTU21D;63664;44.868;40.600;2022-10-16T05:18:56;13.94;88.01
75088;HTU21D;63664;44.868;40.600;2022-10-16T05:21:23;13.96;87.96
75088;HTU21D;63664;44.868;40.600;2022-10-16T05:23:49;14.00;87.89
75088;HTU21D;63664;44.868;40.600;2022-10-16T05:26:15;14.04;87.87
75088;HTU21D;63664;44.868;40.600;2022-10-16T05:28:41;14.07;87.78
75088;HTU21D;63664;44.868;40.600;2022-10-16T05:31:09;14.10;87.70
75088;HTU21D;63664;44.868;40.600;2022-10-16T05:33:35;14.14;87.64
75088;HTU21D;63664;44.868;40.600;2022-10-16T05:36:06;14.20;87.57
75088;HTU21D;63664;44.868;40.600;2022-10-16T05:38:36;14.25;87.44
75088;HTU21D;63664;44.868;40.600;2022-10-16T05:41:04;14.28;87.52
75088;HTU21D;63664;44.868;40.600;2022-10-16T05:43:32;14.33;87.22
75088;HTU21D;63664;44.868;40.600;2022-10-16T05:46:01;14.38;87.23
75088;HTU21D;63664;44.868;40.600;2022-10-16T05:48:27;14.44;87.15
75088;HTU21D;63664;44.868;40.600;2022-10-16T05:50:59;14.56;87.03
75088;HTU21D;63664;44.868;40.600;2022-10-16T05:53:28;14.64;86.82
75088;HTU21D;63664;44.868;40.600;2022-10-16T05:55:55;14.73;86.65
75088;HTU21D;63664;44.868;40.600;2022-10-16T05:58:22;14.80;86.51
75088;HTU21D;63664;44.868;40.600;2022-10-16T06:00:57;14.84;86.41
75088;HTU21D;63664;44.868;40.600;2022-10-16T06:03:25;14.92;86.29
75088;HTU21D;63664;44.868;40.600;2022-10-16T06:05:51;14.97;86.15
75088;HTU21D;63664;44.868;40.600;2022-10-16T06:08:19;15.03;86.02
75088;HTU21D;63664;44.868;40.600;2022-10-16T06:10:46;15.10;85.87
75088;HTU21D;63664;44.868;40.600;2022-10-16T06:13:14;15.16;85.72
75088;HTU21D;63664;44.868;40.600;2022-10-16T06:15:41;15.21;85.64
75088;HTU21D;63664;44.868;40.600;2022-10-16T06:18:09;15.27;85.51
75088;HTU21D;63664;44.868;40.600;2022-10-16T06:20:36;15.30;85.36
75088;HTU21D;63664;44.868;40.600;2022-10-16T06:23:03;15.29;85.32
75088;HTU21D;63664;44.868;40.600;2022-10-16T06:25:32;15.29;85.35
75088;HTU21D;63664;44.868;40.600;2022-10-16T06:27:59;15.30;85.32
75088;HTU21D;63664;44.868;40.600;2022-10-16T06:30:25;15.33;85.28
75088;HTU21D;63664;44.868;40.600;2022-10-16T06:32:51;15.34;85.20
75088;HTU21D;63664;44.868;40.600;2022-10-16T06:35:17;15.38;85.20
75088;HTU21D;63664;44.868;40.600;2022-10-16T06:37:44;15.40;85.12
75088;HTU21D;63664;44.868;40.600;2022-10-16T06:40:10;15.42;85.03
75088;HTU21D;63664;44.868;40.600;2022-10-16T06:42:36;15.42;84.94
75088;HTU21D;63664;44.868;40.600;2022-10-16T06:45:03;15.43;84.88
75088;HTU21D;63664;44.868;40.600;2022-10-16T06:47:29;15.44;84.84
75088;HTU21D;63664;44.868;40.600;2022-10-16T06:49:55;15.46;84.82
75088;HTU21D;63664;44.868;40.600;2022-10-16T06:52:22;15.47;84.74
75088;HTU21D;63664;44.868;40.600;2022-10-16T06:54:49;15.48;84.73
75088;HTU21D;63664;44.868;40.600;2022-10-16T06:57:15;15.54;84.68
75088;HTU21D;63664;44.868;40.600;2022-10-16T06:59:41;15.58;84.58
75088;HTU21D;63664;44.868;40.600;2022-10-16T07:02:08;15.63;84.46
75088;HTU21D;63664;44.868;40.600;2022-10-16T07:04:36;15.68;84.35
75088;HTU21D;63664;44.868;40.600;2022-10-16T07:07:02;15.71;84.23
75088;HTU21D;63664;44.868;40.600;2022-10-16T07:09:28;15.75;84.16
75088;HTU21D;63664;44.868;40.600;2022-10-16T07:11:55;15.78;84.04
75088;HTU21D;63664;44.868;40.600;2022-10-16T07:14:21;15.83;83.91
75088;HTU21D;63664;44.868;40.600;2022-10-16T07:16:48;15.88;83.87
75088;HTU21D;63664;44.868;40.600;2022-10-16T07:19:15;15.92;83.74
75088;HTU21D;63664;44.868;40.600;2022-10-16T07:21:44;15.95;83.69
75088;HTU21D;63664;44.868;40.600;2022-10-16T07:24:13;15.99;83.61
75088;HTU21D;63664;44.868;40.600;2022-10-16T07:26:44;15.99;83.57
75088;HTU21D;63664;44.868;40.600;2022-10-16T07:29:15;16.01;83.43
75088;HTU21D;63664;44.868;40.600;2022-10-16T07:31:42;16.02;83.32
75088;HTU21D;63664;44.868;40.600;2022-10-16T07:34:10;16.03;83.15
75088;HTU21D;63664;44.868;40.600;2022-10-16T07:36:37;16.04;83.11
75088;HTU21D;63664;44.868;40.600;2022-10-16T07:39:03;16.08;83.00
75088;HTU21D;63664;44.868;40.600;2022-10-16T07:41:30;16.11;82.87
75088;HTU21D;63664;44.868;40.600;2022-10-16T07:43:58;16.16;82.82
75088;HTU21D;63664;44.868;40.600;2022-10-16T07:46:28;16.20;82.73
75088;HTU21D;63664;44.868;40.600;2022-10-16T07:48:54;16.17;82.62
75088;HTU21D;63664;44.868;40.600;2022-10-16T07:51:23;16.16;82.60
75088;HTU21D;63664;44.868;40.600;2022-10-16T07:53:50;16.18;82.62
75088;HTU21D;63664;44.868;40.600;2022-10-16T07:56:18;16.26;82.51
75088;HTU21D;63664;44.868;40.600;2022-10-16T07:58:45;16.36;82.23
75088;HTU21D;63664;44.868;40.600;2022-10-16T08:01:14;16.46;82.04
75088;HTU21D;63664;44.868;40.600;2022-10-16T08:03:49;16.58;81.86
75088;HTU21D;63664;44.868;40.600;2022-10-16T08:06:17;16.64;81.62
75088;HTU21D;63664;44.868;40.600;2022-10-16T08:08:43;16.63;81.60
75088;HTU21D;63664;44.868;40.600;2022-10-16T08:11:10;16.61;81.54
75088;HTU21D;63664;44.868;40.600;2022-10-16T08:13:37;16.59;81.52
75088;HTU21D;63664;44.868;40.600;2022-10-16T08:16:05;16.61;81.53
75088;HTU21D;63664;44.868;40.600;2022-10-16T08:18:37;16.65;81.35
75088;HTU21D;63664;44.868;40.600;2022-10-16T08:21:05;16.67;81.17
75088;HTU21D;63664;44.868;40.600;2022-10-16T08:23:32;16.74;81.13
75088;HTU21D;63664;44.868;40.600;2022-10-16T08:26:05;16.81;80.97
75088;HTU21D;63664;44.868;40.600;2022-10-16T08:28:32;16.87;80.75
75088;HTU21D;63664;44.868;40.600;2022-10-16T08:31:13;16.93;80.63
75088;HTU21D;63664;44.868;40.600;2022-10-16T08:33:42;17.01;80.50
75088;HTU21D;63664;44.868;40.600;2022-10-16T08:36:10;17.08;80.41
75088;HTU21D;63664;44.868;40.600;2022-10-16T08:38:37;17.16;80.14
75088;HTU21D;63664;44.868;40.600;2022-10-16T08:46:48;17.20;79.95
75088;HTU21D;63664;44.868;40.600;2022-10-16T08:49:17;17.19;80.01
75088;HTU21D;63664;44.868;40.600;2022-10-16T08:51:44;17.19;79.82
75088;HTU21D;63664;44.868;40.600;2022-10-16T08:54:36;17.21;79.70
75088;HTU21D;63664;44.868;40.600;2022-10-16T08:57:21;17.28;79.59
75088;HTU21D;63664;44.868;40.600;2022-10-16T08:59:48;17.38;79.47
75088;HTU21D;63664;44.868;40.600;2022-10-16T09:02:27;17.48;79.30
75088;HTU21D;63664;44.868;40.600;2022-10-16T09:08:16;17.52;79.04
75088;HTU21D;63664;44.868;40.600;2022-10-16T09:10:51;17.55;79.05
75088;HTU21D;63664;44.868;40.600;2022-10-16T09:13:28;17.60;78.80
75088;HTU21D;63664;44.868;40.600;2022-10-16T09:19:20;17.66;78.53
75088;HTU21D;63664;44.868;40.600;2022-10-16T09:21:53;17.72;78.54
75088;HTU21D;63664;44.868;40.600;2022-10-16T09:24:23;17.81;78.34
75088;HTU21D;63664;44.868;40.600;2022-10-16T09:26:51;17.88;78.19
75088;HTU21D;63664;44.868;40.600;2022-10-16T09:29:20;17.94;78.03
75088;HTU21D;63664;44.868;40.600;2022-10-16T09:31:48;17.97;77.96
75088;HTU21D;63664;44.868;40.600;2022-10-16T09:34:34;18.00;77.84
75088;HTU21D;63664;44.868;40.600;2022-10-16T09:37:05;18.04;77.69
75088;HTU21D;63664;44.868;40.600;2022-10-16T09:42:38;18.21;77.32
75088;HTU21D;63664;44.868;40.600;2022-10-16T09:45:04;18.27;76.98
75088;HTU21D;63664;44.868;40.600;2022-10-16T09:47:31;18.40;76.74
75088;HTU21D;63664;44.868;40.600;2022-10-16T09:50:03;18.57;76.46
75088;HTU21D;63664;44.868;40.600;2022-10-16T09:52:33;18.63;76.27
75088;HTU21D;63664;44.868;40.600;2022-10-16T09:55:02;18.66;76.28
75088;HTU21D;63664;44.868;40.600;2022-10-16T09:57:30;18.67;76.16
75088;HTU21D;63664;44.868;40.600;2022-10-16T09:59:58;18.63;76.17
75088;HTU21D;63664;44.868;40.600;2022-10-16T10:02:37;18.71;76.15
75088;HTU21D;63664;44.868;40.600;2022-10-16T10:05:06;18.88;75.75
75088;HTU21D;63664;44.868;40.600;2022-10-16T10:07:43;18.89;75.50
75088;HTU21D;63664;44.868;40.600;2022-10-16T10:10:23;18.84;75.30
75088;HTU21D;63664;44.868;40.600;2022-10-16T10:12:50;18.70;75.76
75088;HTU21D;63664;44.868;40.600;2022-10-16T10:15:18;18.64;76.03
75088;HTU21D;63664;44.868;40.600;2022-10-16T10:17:54;18.71;75.77
75088;HTU21D;63664;44.868;40.600;2022-10-16T10:20:34;18.73;75.76
75088;HTU21D;63664;44.868;40.600;2022-10-16T10:23:23;18.84;75.56
75088;HTU21D;63664;44.868;40.600;2022-10-16T10:31:45;18.86;75.23
75088;HTU21D;63664;44.868;40.600;2022-10-16T10:34:35;18.87;75.15
75088;HTU21D;63664;44.868;40.600;2022-10-16T10:45:58;18.78;75.22
75088;HTU21D;63664;44.868;40.600;2022-10-16T10:54:23;18.72;75.32
75088;HTU21D;63664;44.868;40.600;2022-10-16T10:57:00;18.72;75.26
75088;HTU21D;63664;44.868;40.600;2022-10-16T11:02:43;18.65;75.21
75088;HTU21D;63664;44.868;40.600;2022-10-16T11:05:42;18.65;75.23
75088;HTU21D;63664;44.868;40.600;2022-10-16T11:08:19;18.67;75.24
75088;HTU21D;63664;44.868;40.600;2022-10-16T11:11:01;18.63;75.06
75088;HTU21D;63664;44.868;40.600;2022-10-16T11:13:34;18.55;75.11
75088;HTU21D;63664;44.868;40.600;2022-10-16T11:16:12;18.50;75.33
75088;HTU21D;63664;44.868;40.600;2022-10-16T11:18:52;18.52;75.18
75088;HTU21D;63664;44.868;40.600;2022-10-16T11:21:21;18.52;75.12
75088;HTU21D;63664;44.868;40.600;2022-10-16T11:24:00;18.52;75.07
75088;HTU21D;63664;44.868;40.600;2022-10-16T11:26:34;18.50;74.99
75088;HTU21D;63664;44.868;40.600;2022-10-16T11:29:04;18.44;75.02
75088;HTU21D;63664;44.868;40.600;2022-10-16T11:31:58;18.35;75.05
75088;HTU21D;63664;44.868;40.600;2022-10-16T11:34:38;18.32;75.29
75088;HTU21D;63664;44.868;40.600;2022-10-16T11:37:16;18.30;75.32
75088;HTU21D;63664;44.868;40.600;2022-10-16T11:39:44;18.33;75.37
75088;HTU21D;63664;44.868;40.600;2022-10-16T11:42:16;18.32;75.32
75088;HTU21D;63664;44.868;40.600;2022-10-16T11:48:01;18.20;75.31
75088;HTU21D;63664;44.868;40.600;2022-10-16T11:54:38;18.12;75.64
75088;HTU21D;63664;44.868;40.600;2022-10-16T11:56:39;18.06;75.65
75088;HTU21D;63664;44.868;40.600;2022-10-16T11:59:34;18.00;75.79
75088;HTU21D;63664;44.868;40.600;2022-10-16T12:05:09;17.90;75.95
75088;HTU21D;63664;44.868;40.600;2022-10-16T12:08:11;17.83;76.12
75088;HTU21D;63664;44.868;40.600;2022-10-16T12:10:41;17.78;76.15
75088;HTU21D;63664;44.868;40.600;2022-10-16T12:13:33;17.67;76.34
75088;HTU21D;63664;44.868;40.600;2022-10-16T12:18:44;17.58;76.57
75088;HTU21D;63664;44.868;40.600;2022-10-16T12:21:16;17.52;76.71
75088;HTU21D;63664;44.868;40.600;2022-10-16T12:23:50;17.47;76.81
75088;HTU21D;63664;44.868;40.600;2022-10-16T12:26:28;17.43;76.82
75088;HTU21D;63664;44.868;40.600;2022-10-16T12:29:12;17.37;77.00
75088;HTU21D;63664;44.868;40.600;2022-10-16T12:31:45;17.36;77.11
75088;HTU21D;63664;44.868;40.600;2022-10-16T12:34:28;17.33;77.21
75088;HTU21D;63664;44.868;40.600;2022-10-16T12:37:08;17.22;77.28
75088;HTU21D;63664;44.868;40.600;2022-10-16T12:39:36;17.15;77.41
75088;HTU21D;63664;44.868;40.600;2022-10-16T12:44:52;17.05;77.62
75088;HTU21D;63664;44.868;40.600;2022-10-16T12:47:21;17.01;77.77
75088;HTU21D;63664;44.868;40.600;2022-10-16T12:49:52;17.02;77.76
75088;HTU21D;63664;44.868;40.600;2022-10-16T12:55:01;16.89;77.98
75088;HTU21D;63664;44.868;40.600;2022-10-16T13:00:44;16.70;78.37
75088;HTU21D;63664;44.868;40.600;2022-10-16T13:03:33;16.62;78.53
75088;HTU21D;63664;44.868;40.600;2022-10-16T13:09:17;16.51;78.79
75088;HTU21D;63664;44.868;40.600;2022-10-16T13:11:59;16.47;78.84
75088;HTU21D;63664;44.868;40.600;2022-10-16T13:15:06;16.43;78.94
75088;HTU21D;63664;44.868;40.600;2022-10-16T13:23:26;16.25;79.40
75088;HTU21D;63664;44.868;40.600;2022-10-16T13:28:29;16.16;79.61
75088;HTU21D;63664;44.868;40.600;2022-10-16T13:30:59;16.10;79.74
75088;HTU21D;63664;44.868;40.600;2022-10-16T13:33:36;16.05;79.90
75088;HTU21D;63664;44.868;40.600;2022-10-16T13:36:05;16.02;80.04
75088;HTU21D;63664;44.868;40.600;2022-10-16T13:38:34;15.97;80.18
75088;HTU21D;63664;44.868;40.600;2022-10-16T13:41:27;15.91;80.30
75088;HTU21D;63664;44.868;40.600;2022-10-16T13:43:56;15.88;80.27
75088;HTU21D;63664;44.868;40.600;2022-10-16T13:46:24;15.85;80.33
75088;HTU21D;63664;44.868;40.600;2022-10-16T13:51:29;15.78;80.52
75088;HTU21D;63664;44.868;40.600;2022-10-16T13:53:57;15.76;80.60
75088;HTU21D;63664;44.868;40.600;2022-10-16T13:56:28;15.74;80.71
75088;HTU21D;63664;44.868;40.600;2022-10-16T13:59:20;15.74;80.75
75088;HTU21D;63664;44.868;40.600;2022-10-16T14:01:49;15.70;80.78
75088;HTU21D;63664;44.868;40.600;2022-10-16T14:04:17;15.63;80.92
75088;HTU21D;63664;44.868;40.600;2022-10-16T14:06:46;15.59;81.09
75088;HTU21D;63664;44.868;40.600;2022-10-16T14:09:29;15.57;81.17
75088;HTU21D;63664;44.868;40.600;2022-10-16T14:12:02;15.55;81.21
75088;HTU21D;63664;44.868;40.600;2022-10-16T14:14:42;15.49;81.38
75088;HTU21D;63664;44.868;40.600;2022-10-16T14:17:31;15.45;81.51
75088;HTU21D;63664;44.868;40.600;2022-10-16T14:20:02;15.42;81.60
75088;HTU21D;63664;44.868;40.600;2022-10-16T14:28:17;15.28;82.24
75088;HTU21D;63664;44.868;40.600;2022-10-16T14:30:58;15.24;82.11
75088;HTU21D;63664;44.868;40.600;2022-10-16T14:33:33;15.21;82.21
75088;HTU21D;63664;44.868;40.600;2022-10-16T14:36:12;15.17;82.28
75088;HTU21D;63664;44.868;40.600;2022-10-16T14:38:41;15.16;82.32
75088;HTU21D;63664;44.868;40.600;2022-10-16T14:41:08;15.13;82.44
75088;HTU21D;63664;44.868;40.600;2022-10-16T14:43:36;15.13;82.57
75088;HTU21D;63664;44.868;40.600;2022-10-16T14:46:15;15.10;82.72
75088;HTU21D;63664;44.868;40.600;2022-10-16T14:48:44;15.07;82.75
75088;HTU21D;63664;44.868;40.600;2022-10-16T14:51:19;15.04;82.87
75088;HTU21D;63664;44.868;40.600;2022-10-16T14:53:46;15.02;82.94
75088;HTU21D;63664;44.868;40.600;2022-10-16T14:56:24;14.99;83.10
75088;HTU21D;63664;44.868;40.600;2022-10-16T14:58:52;14.98;83.14
75088;HTU21D;63664;44.868;40.600;2022-10-16T15:01:19;14.96;83.24
75088;HTU21D;63664;44.868;40.600;2022-10-16T15:03:46;14.93;83.34
75088;HTU21D;63664;44.868;40.600;2022-10-16T15:06:14;14.92;83.45
75088;HTU21D;63664;44.868;40.600;2022-10-16T15:08:42;14.91;83.56
75088;HTU21D;63664;44.868;40.600;2022-10-16T15:11:13;14.88;83.81
75088;HTU21D;63664;44.868;40.600;2022-10-16T15:13:41;14.84;83.81
75088;HTU21D;63664;44.868;40.600;2022-10-16T15:16:16;14.82;83.93
75088;HTU21D;63664;44.868;40.600;2022-10-16T15:18:43;14.81;84.03
75088;HTU21D;63664;44.868;40.600;2022-10-16T15:21:25;14.81;84.09
75088;HTU21D;63664;44.868;40.600;2022-10-16T15:23:52;14.79;84.16
75088;HTU21D;63664;44.868;40.600;2022-10-16T15:26:18;14.77;84.21
75088;HTU21D;63664;44.868;40.600;2022-10-16T15:28:45;14.74;84.31
75088;HTU21D;63664;44.868;40.600;2022-10-16T15:31:11;14.73;84.52
75088;HTU21D;63664;44.868;40.600;2022-10-16T15:33:37;14.71;84.62
75088;HTU21D;63664;44.868;40.600;2022-10-16T15:36:04;14.69;84.73
75088;HTU21D;63664;44.868;40.600;2022-10-16T15:38:30;14.69;84.76
75088;HTU21D;63664;44.868;40.600;2022-10-16T15:40:57;14.68;84.80
75088;HTU21D;63664;44.868;40.600;2022-10-16T15:43:23;14.69;84.83
75088;HTU21D;63664;44.868;40.600;2022-10-16T15:46:00;14.69;84.89
75088;HTU21D;63664;44.868;40.600;2022-10-16T15:48:28;14.69;84.90
75088;HTU21D;63664;44.868;40.600;2022-10-16T15:50:55;14.68;85.03
75088;HTU21D;63664;44.868;40.600;2022-10-16T15:53:22;14.65;85.23
75088;HTU21D;63664;44.868;40.600;2022-10-16T15:55:48;14.66;85.21
75088;HTU21D;63664;44.868;40.600;2022-10-16T15:58:15;14.65;85.26
75088;HTU21D;63664;44.868;40.600;2022-10-16T16:00:41;14.65;85.49
75088;HTU21D;63664;44.868;40.600;2022-10-16T16:03:08;14.64;85.50
75088;HTU21D;63664;44.868;40.600;2022-10-16T16:05:38;14.64;85.55
75088;HTU21D;63664;44.868;40.600;2022-10-16T16:08:06;14.65;85.58
75088;HTU21D;63664;44.868;40.600;2022-10-16T16:10:33;14.63;85.69
75088;HTU21D;63664;44.868;40.600;2022-10-16T16:13:00;14.62;85.91
75088;HTU21D;63664;44.868;40.600;2022-10-16T16:15:26;14.62;86.03
75088;HTU21D;63664;44.868;40.600;2022-10-16T16:17:53;14.60;86.13
75088;HTU21D;63664;44.868;40.600;2022-10-16T16:20:19;14.63;86.00
75088;HTU21D;63664;44.868;40.600;2022-10-16T16:22:46;14.62;86.06
75088;HTU21D;63664;44.868;40.600;2022-10-16T16:25:12;14.59;86.03
75088;HTU21D;63664;44.868;40.600;2022-10-16T16:27:38;14.60;86.12
75088;HTU21D;63664;44.868;40.600;2022-10-16T16:30:06;14.59;86.31
75088;HTU21D;63664;44.868;40.600;2022-10-16T16:32:34;14.58;86.27
75088;HTU21D;63664;44.868;40.600;2022-10-16T16:35:01;14.57;86.31
75088;HTU21D;63664;44.868;40.600;2022-10-16T16:37:28;14.55;86.38
75088;HTU21D;63664;44.868;40.600;2022-10-16T16:39:54;14.54;86.51
75088;HTU21D;63664;44.868;40.600;2022-10-16T16:42:26;14.54;86.52
75088;HTU21D;63664;44.868;40.600;2022-10-16T16:44:52;14.53;86.56
75088;HTU21D;63664;44.868;40.600;2022-10-16T16:47:19;14.52;86.58
75088;HTU21D;63664;44.868;40.600;2022-10-16T16:49:45;14.51;86.74
75088;HTU21D;63664;44.868;40.600;2022-10-16T16:52:15;14.50;86.89
75088;HTU21D;63664;44.868;40.600;2022-10-16T16:54:41;14.50;86.91
75088;HTU21D;63664;44.868;40.600;2022-10-16T16:57:08;14.50;86.90
75088;HTU21D;63664;44.868;40.600;2022-10-16T16:59:34;14.47;87.08
75088;HTU21D;63664;44.868;40.600;2022-10-16T17:02:00;14.45;87.12
75088;HTU21D;63664;44.868;40.600;2022-10-16T17:04:27;14.45;87.13